createdAt,value
2019-05-05T00:00:56.579Z,995.68
2019-05-05T00:01:56.560Z,995.75
2019-05-05T00:02:56.549Z,995.77
2019-05-05T00:03:56.585Z,995.76
2019-05-05T00:04:56.529Z,995.79
2019-05-05T00:05:56.531Z,995.77
2019-05-05T00:06:56.504Z,995.77
2019-05-05T00:07:56.494Z,995.77
2019-05-05T00:08:56.506Z,995.80
2019-05-05T00:09:56.480Z,995.83
2019-05-05T00:10:56.971Z,995.78
2019-05-05T00:11:56.493Z,995.77
2019-05-05T00:12:56.437Z,995.81
2019-05-05T00:13:56.429Z,995.79
2019-05-05T00:14:56.418Z,995.84
2019-05-05T00:15:56.408Z,995.83
2019-05-05T00:16:56.426Z,995.83
2019-05-05T00:17:56.385Z,995.85
2019-05-05T00:18:56.370Z,995.82
2019-05-05T00:19:56.360Z,995.84
2019-05-05T00:20:56.350Z,995.84
2019-05-05T00:21:56.372Z,995.85
2019-05-05T00:22:56.377Z,995.85
2019-05-05T00:23:56.324Z,995.85
2019-05-05T00:24:56.305Z,995.86
2019-05-05T00:25:56.327Z,995.88
2019-05-05T00:26:56.288Z,995.85
2019-05-05T00:27:56.272Z,995.91
2019-05-05T00:28:56.271Z,995.94
2019-05-05T00:29:56.251Z,995.89
2019-05-05T00:30:56.261Z,995.93
2019-05-05T00:31:56.230Z,995.91
2019-05-05T00:32:56.242Z,995.94
2019-05-05T00:33:56.203Z,995.98
2019-05-05T00:34:56.206Z,995.95
2019-05-05T00:35:56.182Z,995.98
2019-05-05T00:36:56.200Z,995.99
2019-05-05T00:37:56.163Z,996.02
2019-05-05T00:38:56.150Z,996.01
2019-05-05T00:39:56.167Z,996.00
2019-05-05T00:40:56.132Z,996.05
2019-05-05T00:41:56.134Z,996.06
2019-05-05T00:42:56.121Z,996.07
2019-05-05T00:43:56.112Z,996.05
2019-05-05T00:44:56.083Z,996.05
2019-05-05T00:45:56.075Z,996.05
2019-05-05T00:46:56.093Z,996.02
2019-05-05T00:47:56.050Z,996.03
2019-05-05T00:48:56.065Z,996.08
2019-05-05T00:49:56.390Z,996.09
2019-05-05T00:50:56.017Z,996.09
2019-05-05T00:51:56.006Z,996.09
2019-05-05T00:52:56.035Z,996.08
2019-05-05T00:53:56.008Z,996.10
2019-05-05T00:54:55.974Z,996.03
2019-05-05T00:55:55.959Z,996.09
2019-05-05T00:56:55.948Z,996.04
2019-05-05T00:57:55.941Z,996.08
2019-05-05T00:58:55.954Z,996.07
2019-05-05T00:59:55.925Z,996.05
2019-05-05T01:00:55.919Z,996.06
2019-05-05T01:01:55.894Z,996.06
2019-05-05T01:02:55.882Z,996.04
2019-05-05T01:03:55.871Z,996.08
2019-05-05T01:04:55.863Z,996.07
2019-05-05T01:05:55.882Z,996.13
2019-05-05T01:06:55.854Z,996.12
2019-05-05T01:07:55.828Z,996.16
2019-05-05T01:08:55.815Z,996.14
2019-05-05T01:09:55.809Z,996.15
2019-05-05T01:10:55.812Z,996.17
2019-05-05T01:11:55.813Z,996.16
2019-05-05T01:12:55.771Z,996.19
2019-05-05T01:13:55.761Z,996.19
2019-05-05T01:14:55.751Z,996.22
2019-05-05T01:15:55.768Z,996.22
2019-05-05T01:16:55.726Z,996.22
2019-05-05T01:17:55.737Z,996.28
2019-05-05T01:18:55.709Z,996.29
2019-05-05T01:20:03.478Z,996.26
2019-05-05T01:20:56.708Z,996.28
2019-05-05T01:21:55.676Z,996.33
2019-05-05T01:22:55.660Z,996.35
2019-05-05T01:23:55.673Z,996.36
2019-05-05T01:24:55.652Z,996.40
2019-05-05T01:25:55.650Z,996.40
2019-05-05T01:26:55.616Z,996.39
2019-05-05T01:27:55.609Z,996.37
2019-05-05T01:28:56.271Z,996.40
2019-05-05T01:29:55.582Z,996.40
2019-05-05T01:30:55.597Z,996.44
2019-05-05T01:31:55.570Z,996.48
2019-05-05T01:32:56.080Z,996.46
2019-05-05T01:33:55.542Z,996.46
2019-05-05T01:34:55.557Z,996.45
2019-05-05T01:35:55.515Z,996.48
2019-05-05T01:36:55.506Z,996.50
2019-05-05T01:37:55.496Z,996.53
2019-05-05T01:38:55.527Z,996.57
2019-05-05T01:39:55.508Z,996.52
2019-05-05T01:40:55.459Z,996.53
2019-05-05T01:41:55.486Z,996.55
2019-05-05T01:42:55.436Z,996.51
2019-05-05T01:43:55.424Z,996.55
2019-05-05T01:44:55.429Z,996.55
2019-05-05T01:45:55.429Z,996.59
2019-05-05T01:46:55.392Z,996.61
2019-05-05T01:47:55.382Z,996.60
2019-05-05T01:48:55.374Z,996.65
2019-05-05T01:49:55.370Z,996.62
2019-05-05T01:50:55.372Z,996.65
2019-05-05T01:51:55.485Z,996.63
2019-05-05T01:52:55.629Z,996.63
2019-05-05T01:53:55.339Z,996.65
2019-05-05T01:54:55.304Z,996.65
2019-05-05T01:55:55.299Z,996.67
2019-05-05T01:56:55.653Z,996.70
2019-05-05T01:57:55.286Z,996.71
2019-05-05T01:58:55.258Z,996.67
2019-05-05T01:59:55.423Z,996.70
2019-05-05T02:00:55.237Z,996.70
2019-05-05T02:01:55.298Z,996.69
2019-05-05T02:02:55.456Z,996.68
2019-05-05T02:03:55.217Z,996.74
2019-05-05T02:04:55.522Z,996.76
2019-05-05T02:05:55.181Z,996.79
2019-05-05T02:06:55.211Z,996.77
2019-05-05T02:07:55.408Z,996.76
2019-05-05T02:08:55.172Z,996.76
2019-05-05T02:09:55.534Z,996.78
2019-05-05T02:10:55.127Z,996.83
2019-05-05T02:11:55.116Z,996.82
2019-05-05T02:12:55.249Z,996.81
2019-05-05T02:13:55.113Z,996.75
2019-05-05T02:14:55.329Z,996.76
2019-05-05T02:15:55.314Z,996.78
2019-05-05T02:16:55.061Z,996.81
2019-05-05T02:17:55.214Z,996.77
2019-05-05T02:18:55.039Z,996.86
2019-05-05T02:19:55.162Z,996.84
2019-05-05T02:20:55.014Z,996.85
2019-05-05T02:21:55.103Z,996.86
2019-05-05T02:22:55.256Z,996.83
2019-05-05T02:23:55.012Z,996.82
2019-05-05T02:24:55.296Z,996.84
2019-05-05T02:25:55.382Z,996.82
2019-05-05T02:26:54.946Z,996.88
2019-05-05T02:27:54.939Z,996.89
2019-05-05T02:28:54.943Z,996.90
2019-05-05T02:29:54.992Z,996.87
2019-05-05T02:30:55.205Z,996.88
2019-05-05T02:31:55.307Z,996.87
2019-05-05T02:32:55.516Z,996.87
2019-05-05T02:33:56.821Z,996.89
2019-05-05T02:34:56.322Z,996.87
2019-05-05T02:35:55.799Z,996.88
2019-05-05T02:36:56.475Z,996.90
2019-05-05T02:37:55.786Z,996.89
2019-05-05T02:38:56.745Z,996.90
2019-05-05T02:40:02.009Z,996.88
2019-05-05T02:40:55.805Z,996.94
2019-05-05T02:41:54.918Z,996.92
2019-05-05T02:42:55.071Z,996.89
2019-05-05T02:43:55.741Z,996.91
2019-05-05T02:44:54.749Z,996.91
2019-05-05T02:45:55.304Z,996.95
2019-05-05T02:46:55.234Z,996.92
2019-05-05T02:47:55.129Z,996.91
2019-05-05T02:48:55.222Z,996.92
2019-05-05T02:49:55.034Z,996.93
2019-05-05T02:51:00.142Z,996.98
2019-05-05T02:51:55.700Z,996.97
2019-05-05T02:52:54.658Z,997.00
2019-05-05T02:53:54.649Z,997.02
2019-05-05T02:54:54.636Z,997.05
2019-05-05T02:55:54.626Z,997.03
2019-05-05T02:56:54.638Z,997.06
2019-05-05T02:57:54.608Z,997.11
2019-05-05T02:58:54.591Z,997.11
2019-05-05T02:59:54.579Z,997.10
2019-05-05T03:00:54.569Z,997.16
2019-05-05T03:01:54.584Z,997.10
2019-05-05T03:02:54.572Z,997.16
2019-05-05T03:03:54.570Z,997.21
2019-05-05T03:04:54.526Z,997.24
2019-05-05T03:05:54.513Z,997.22
2019-05-05T03:06:54.503Z,997.24
2019-05-05T03:07:54.491Z,997.20
2019-05-05T03:08:54.503Z,997.24
2019-05-05T03:09:54.608Z,997.23
2019-05-05T03:10:54.457Z,997.25
2019-05-05T03:11:54.446Z,997.19
2019-05-05T03:12:54.514Z,997.25
2019-05-05T03:13:54.425Z,997.24
2019-05-05T03:14:54.418Z,997.26
2019-05-05T03:15:55.098Z,997.26
2019-05-05T03:16:54.392Z,997.26
2019-05-05T03:17:54.381Z,997.26
2019-05-05T03:18:54.584Z,997.27
2019-05-05T03:19:54.358Z,997.28
2019-05-05T03:21:03.849Z,997.29
2019-05-05T03:21:55.364Z,997.30
2019-05-05T03:22:54.324Z,997.31
2019-05-05T03:23:54.871Z,997.30
2019-05-05T03:24:54.303Z,997.31
2019-05-05T03:25:54.626Z,997.35
2019-05-05T03:26:54.282Z,997.38
2019-05-05T03:27:54.275Z,997.39
2019-05-05T03:28:54.482Z,997.38
2019-05-05T03:29:54.255Z,997.38
2019-05-05T03:30:55.819Z,997.40
2019-05-05T03:31:56.325Z,997.42
2019-05-05T03:32:55.971Z,997.41
2019-05-05T03:33:55.090Z,997.41
2019-05-05T03:34:54.234Z,997.46
2019-05-05T03:35:54.277Z,997.47
2019-05-05T03:36:54.174Z,997.45
2019-05-05T03:37:54.549Z,997.47
2019-05-05T03:38:54.147Z,997.51
2019-05-05T03:39:54.152Z,997.50
2019-05-05T03:40:54.263Z,997.52
2019-05-05T03:41:54.368Z,997.54
2019-05-05T03:42:54.127Z,997.51
2019-05-05T03:43:56.915Z,997.50
2019-05-05T03:44:54.558Z,997.49
2019-05-05T03:45:54.071Z,997.51
2019-05-05T03:46:54.431Z,997.53
2019-05-05T03:47:54.218Z,997.53
2019-05-05T03:48:54.247Z,997.54
2019-05-05T03:49:54.029Z,997.56
2019-05-05T03:50:54.163Z,997.62
2019-05-05T03:51:54.385Z,997.62
2019-05-05T03:52:54.497Z,997.63
2019-05-05T03:53:53.982Z,997.67
2019-05-05T03:54:54.237Z,997.67
2019-05-05T03:55:54.560Z,997.67
2019-05-05T03:56:54.539Z,997.68
2019-05-05T03:57:53.937Z,997.72
2019-05-05T03:58:54.332Z,997.69
2019-05-05T03:59:54.719Z,997.74
2019-05-05T04:00:54.895Z,997.76
2019-05-05T04:01:54.550Z,997.74
2019-05-05T04:02:53.956Z,997.74
2019-05-05T04:03:54.145Z,997.76
2019-05-05T04:04:55.021Z,997.77
2019-05-05T04:05:53.881Z,997.78
2019-05-05T04:06:54.122Z,997.78
2019-05-05T04:07:54.551Z,997.78
2019-05-05T04:08:53.862Z,997.78
2019-05-05T04:09:54.352Z,997.83
2019-05-05T04:10:54.617Z,997.86
2019-05-05T04:11:54.090Z,997.84
2019-05-05T04:12:54.002Z,997.85
2019-05-05T04:13:54.235Z,997.87
2019-05-05T04:14:54.556Z,997.84
2019-05-05T04:15:53.770Z,997.86
2019-05-05T04:16:54.077Z,997.83
2019-05-05T04:17:53.768Z,997.92
2019-05-05T04:18:54.312Z,997.87
2019-05-05T04:19:54.263Z,997.85
2019-05-05T04:20:53.703Z,997.88
2019-05-05T04:21:53.749Z,997.85
2019-05-05T04:22:55.220Z,997.86
2019-05-05T04:23:53.651Z,997.85
2019-05-05T04:24:54.236Z,997.87
2019-05-05T04:25:54.419Z,997.87
2019-05-05T04:26:54.584Z,997.90
2019-05-05T04:27:53.904Z,997.88
2019-05-05T04:28:54.147Z,997.94
2019-05-05T04:29:54.504Z,997.90
2019-05-05T04:30:53.760Z,997.96
2019-05-05T04:31:54.118Z,997.99
2019-05-05T04:32:54.583Z,998.04
2019-05-05T04:33:53.904Z,998.06
2019-05-05T04:34:54.308Z,998.11
2019-05-05T04:35:54.540Z,998.14
2019-05-05T04:36:54.648Z,998.14
2019-05-05T04:37:54.239Z,998.19
2019-05-05T04:38:54.601Z,998.16
2019-05-05T04:39:53.854Z,998.16
2019-05-05T04:40:54.198Z,998.16
2019-05-05T04:41:54.552Z,998.16
2019-05-05T04:42:54.642Z,998.16
2019-05-05T04:43:54.688Z,998.16
2019-05-05T04:44:53.913Z,998.17
2019-05-05T04:45:54.122Z,998.15
2019-05-05T04:46:54.572Z,998.12
2019-05-05T04:47:54.005Z,998.09
2019-05-05T04:48:54.441Z,998.10
2019-05-05T04:49:53.879Z,998.05
2019-05-05T04:50:54.384Z,998.07
2019-05-05T04:51:53.930Z,998.06
2019-05-05T04:52:54.051Z,998.05
2019-05-05T04:53:54.311Z,998.02
2019-05-05T04:54:55.467Z,998.02
2019-05-05T04:55:53.650Z,998.01
2019-05-05T04:56:53.970Z,998.00
2019-05-05T04:57:54.033Z,998.00
2019-05-05T04:58:54.442Z,997.98
2019-05-05T04:59:54.044Z,997.94
2019-05-05T05:00:54.702Z,997.93
2019-05-05T05:01:54.632Z,997.96
2019-05-05T05:02:53.950Z,997.99
2019-05-05T05:03:54.324Z,997.96
2019-05-05T05:04:53.593Z,998.01
2019-05-05T05:05:53.725Z,998.03
2019-05-05T05:06:54.246Z,998.03
2019-05-05T05:07:54.622Z,998.03
2019-05-05T05:08:53.672Z,998.02
2019-05-05T05:09:54.042Z,998.07
2019-05-05T05:10:54.316Z,998.10
2019-05-05T05:11:54.739Z,998.08
2019-05-05T05:12:54.003Z,998.11
2019-05-05T05:13:54.477Z,998.16
2019-05-05T05:14:54.665Z,998.10
2019-05-05T05:15:53.956Z,998.14
2019-05-05T05:16:54.145Z,998.15
2019-05-05T05:17:53.555Z,998.18
2019-05-05T05:18:53.771Z,998.15
2019-05-05T05:19:54.196Z,998.17
2019-05-05T05:20:54.903Z,998.20
2019-05-05T05:22:01.622Z,998.24
2019-05-05T05:22:54.484Z,998.21
2019-05-05T05:23:53.605Z,998.21
2019-05-05T05:24:54.108Z,998.19
2019-05-05T05:25:54.399Z,998.19
2019-05-05T05:26:52.951Z,998.16
2019-05-05T05:27:53.619Z,998.17
2019-05-05T05:28:53.852Z,998.16
2019-05-05T05:29:54.404Z,998.15
2019-05-05T05:30:54.576Z,998.18
2019-05-05T05:31:53.543Z,998.15
2019-05-05T05:32:53.878Z,998.22
2019-05-05T05:33:54.807Z,998.18
2019-05-05T05:34:54.238Z,998.21
2019-05-05T05:35:54.614Z,998.18
2019-05-05T05:36:53.631Z,998.25
2019-05-05T05:37:54.006Z,998.23
2019-05-05T05:38:54.165Z,998.26
2019-05-05T05:39:54.539Z,998.27
2019-05-05T05:40:53.588Z,998.27
2019-05-05T05:41:54.121Z,998.26
2019-05-05T05:42:54.211Z,998.28
2019-05-05T05:43:54.160Z,998.28
2019-05-05T05:44:53.526Z,998.31
2019-05-05T05:45:54.208Z,998.31
2019-05-05T05:46:54.571Z,998.29
2019-05-05T05:47:53.693Z,998.30
2019-05-05T05:48:53.851Z,998.27
2019-05-05T05:49:54.425Z,998.30
2019-05-05T05:50:53.704Z,998.29
2019-05-05T05:51:53.833Z,998.25
2019-05-05T05:52:54.071Z,998.26
2019-05-05T05:53:54.373Z,998.32
2019-05-05T05:54:53.529Z,998.36
2019-05-05T05:55:53.787Z,998.31
2019-05-05T05:56:53.825Z,998.34
2019-05-05T05:57:54.199Z,998.39
2019-05-05T05:58:54.261Z,998.33
2019-05-05T05:59:54.748Z,998.38
2019-05-05T06:00:53.969Z,998.39
2019-05-05T06:02:06.081Z,998.32
2019-05-05T06:02:54.597Z,998.33
2019-05-05T06:03:53.601Z,998.38
2019-05-05T06:04:53.947Z,998.35
2019-05-05T06:05:54.000Z,998.39
2019-05-05T06:06:54.375Z,998.39
2019-05-05T06:07:54.447Z,998.45
2019-05-05T06:08:54.284Z,998.42
2019-05-05T06:09:54.166Z,998.43
2019-05-05T06:10:54.529Z,998.41
2019-05-05T06:11:54.198Z,998.41
2019-05-05T06:12:54.147Z,998.42
2019-05-05T06:13:54.395Z,998.40
2019-05-05T06:14:53.702Z,998.45
2019-05-05T06:15:53.551Z,998.40
2019-05-05T06:16:53.976Z,998.39
2019-05-05T06:17:54.016Z,998.38
2019-05-05T06:18:54.223Z,998.36
2019-05-05T06:19:53.443Z,998.33
2019-05-05T06:20:53.776Z,998.39
2019-05-05T06:21:54.146Z,998.39
2019-05-05T06:22:53.541Z,998.41
2019-05-05T06:23:53.798Z,998.42
2019-05-05T06:24:54.135Z,998.44
2019-05-05T06:25:54.859Z,998.40
2019-05-05T06:26:54.592Z,998.50
2019-05-05T06:27:54.027Z,998.50
2019-05-05T06:28:54.084Z,998.52
2019-05-05T06:29:54.232Z,998.53
2019-05-05T06:30:54.477Z,998.53
2019-05-05T06:31:53.771Z,998.48
2019-05-05T06:32:54.358Z,998.48
2019-05-05T06:33:54.203Z,998.49
2019-05-05T06:34:53.438Z,998.47
2019-05-05T06:35:53.557Z,998.50
2019-05-05T06:36:53.728Z,998.50
2019-05-05T06:37:54.313Z,998.57
2019-05-05T06:38:54.039Z,998.55
2019-05-05T06:39:54.302Z,998.50
2019-05-05T06:40:53.713Z,998.50
2019-05-05T06:41:53.860Z,998.50
2019-05-05T06:42:53.895Z,998.52
2019-05-05T06:43:54.223Z,998.49
2019-05-05T06:44:53.510Z,998.51
2019-05-05T06:45:53.526Z,998.51
2019-05-05T06:46:53.754Z,998.50
2019-05-05T06:47:53.744Z,998.48
2019-05-05T06:48:53.878Z,998.50
2019-05-05T06:49:54.085Z,998.43
2019-05-05T06:50:52.017Z,998.45
2019-05-05T06:51:52.007Z,998.49
2019-05-05T06:52:53.667Z,998.47
2019-05-05T06:53:53.873Z,998.54
2019-05-05T06:54:54.141Z,998.51
2019-05-05T06:55:54.146Z,998.51
2019-05-05T06:56:53.834Z,998.47
2019-05-05T06:57:53.775Z,998.47
2019-05-05T06:58:53.890Z,998.48
2019-05-05T06:59:51.943Z,998.47
2019-05-05T07:00:51.906Z,998.46
2019-05-05T07:01:53.572Z,998.49
2019-05-05T07:02:53.930Z,998.47
2019-05-05T07:03:51.859Z,998.47
2019-05-05T07:04:51.883Z,998.47
2019-05-05T07:05:53.834Z,998.46
2019-05-05T07:06:56.316Z,998.48
2019-05-05T07:07:53.749Z,998.55
2019-05-05T07:08:51.805Z,998.51
2019-05-05T07:09:54.142Z,998.48
2019-05-05T07:10:51.800Z,998.50
2019-05-05T07:11:53.944Z,998.57
2019-05-05T07:12:51.785Z,998.54
2019-05-05T07:13:53.689Z,998.60
2019-05-05T07:14:53.657Z,998.57
2019-05-05T07:15:51.729Z,998.64
2019-05-05T07:16:51.713Z,998.59
2019-05-05T07:17:53.582Z,998.58
2019-05-05T07:18:53.786Z,998.60
2019-05-05T07:19:54.212Z,998.62
2019-05-05T07:20:51.677Z,998.65
2019-05-05T07:21:53.625Z,998.63
2019-05-05T07:23:01.427Z,998.62
2019-05-05T07:23:53.851Z,998.67
2019-05-05T07:24:51.627Z,998.64
2019-05-05T07:25:51.627Z,998.68
2019-05-05T07:26:51.628Z,998.70
2019-05-05T07:27:51.617Z,998.70
2019-05-05T07:28:51.614Z,998.72
2019-05-05T07:29:51.569Z,998.69
2019-05-05T07:30:51.621Z,998.69
2019-05-05T07:31:51.553Z,998.72
2019-05-05T07:32:53.606Z,998.72
2019-05-05T07:33:51.549Z,998.71
2019-05-05T07:34:51.517Z,998.69
2019-05-05T07:35:56.776Z,998.67
2019-05-05T07:36:54.642Z,998.71
2019-05-05T07:37:53.741Z,998.72
2019-05-05T07:38:51.548Z,998.72
2019-05-05T07:39:51.456Z,998.73
2019-05-05T07:40:51.448Z,998.76
2019-05-05T07:41:51.445Z,998.77
2019-05-05T07:42:51.426Z,998.79
2019-05-05T07:43:51.438Z,998.79
2019-05-05T07:44:51.430Z,998.80
2019-05-05T07:45:51.392Z,998.83
2019-05-05T07:46:51.383Z,998.84
2019-05-05T07:47:51.366Z,998.83
2019-05-05T07:48:51.355Z,998.85
2019-05-05T07:49:53.424Z,998.82
2019-05-05T07:50:59.815Z,998.85
2019-05-05T07:51:54.481Z,998.85
2019-05-05T07:52:51.313Z,998.84
2019-05-05T07:53:51.328Z,998.86
2019-05-05T07:54:51.356Z,998.89
2019-05-05T07:55:51.277Z,998.83
2019-05-05T07:56:51.262Z,998.81
2019-05-05T07:57:51.310Z,998.80
2019-05-05T07:58:51.253Z,998.86
2019-05-05T07:59:51.246Z,998.87
2019-05-05T08:00:51.246Z,998.87
2019-05-05T08:01:51.207Z,998.90
2019-05-05T08:02:51.326Z,998.88
2019-05-05T08:03:51.201Z,998.85
2019-05-05T08:04:51.177Z,998.97
2019-05-05T08:05:51.165Z,999.00
2019-05-05T08:06:51.181Z,998.96
2019-05-05T08:07:51.139Z,998.87
2019-05-05T08:08:51.150Z,998.88
2019-05-05T08:09:51.165Z,998.94
2019-05-05T08:10:51.104Z,998.94
2019-05-05T08:11:51.101Z,998.92
2019-05-05T08:12:51.094Z,998.91
2019-05-05T08:13:51.096Z,998.91
2019-05-05T08:14:51.065Z,998.95
2019-05-05T08:15:59.144Z,998.93
2019-05-05T08:16:53.589Z,998.87
2019-05-05T08:17:51.030Z,998.98
2019-05-05T08:18:51.049Z,998.96
2019-05-05T08:19:51.025Z,998.92
2019-05-05T08:20:50.992Z,998.95
2019-05-05T08:21:51.063Z,999.01
2019-05-05T08:22:51.005Z,998.93
2019-05-05T08:23:50.976Z,998.92
2019-05-05T08:24:50.981Z,998.86
2019-05-05T08:25:50.936Z,998.87
2019-05-05T08:26:50.990Z,998.80
2019-05-05T08:27:50.926Z,998.84
2019-05-05T08:28:50.921Z,998.84
2019-05-05T08:29:50.905Z,998.83
2019-05-05T08:30:50.907Z,998.80
2019-05-05T08:31:50.875Z,998.84
2019-05-05T08:32:50.856Z,998.81
2019-05-05T08:33:50.846Z,998.89
2019-05-05T08:34:59.865Z,998.87
2019-05-05T08:35:53.997Z,998.88
2019-05-05T08:36:50.838Z,998.87
2019-05-05T08:37:50.808Z,998.87
2019-05-05T08:38:50.810Z,998.87
2019-05-05T08:39:50.829Z,998.91
2019-05-05T08:40:50.767Z,998.90
2019-05-05T08:41:50.786Z,998.98
2019-05-05T08:42:50.750Z,998.95
2019-05-05T08:43:50.783Z,998.92
2019-05-05T08:44:50.771Z,998.92
2019-05-05T08:45:50.736Z,998.97
2019-05-05T08:46:50.703Z,998.91
2019-05-05T08:47:50.708Z,998.92
2019-05-05T08:48:50.712Z,998.97
2019-05-05T08:49:50.681Z,999.00
2019-05-05T08:50:50.678Z,998.92
2019-05-05T08:51:50.653Z,998.93
2019-05-05T08:52:50.630Z,998.99
2019-05-05T08:53:50.621Z,998.97
2019-05-05T08:54:50.618Z,998.94
2019-05-05T08:55:50.646Z,998.93
2019-05-05T08:56:50.585Z,998.89
2019-05-05T08:57:50.578Z,998.89
2019-05-05T08:58:50.565Z,998.84
2019-05-05T08:59:50.560Z,998.86
2019-05-05T09:00:50.578Z,998.81
2019-05-05T09:01:50.563Z,998.81
2019-05-05T09:02:50.523Z,998.70
2019-05-05T09:03:50.509Z,998.78
2019-05-05T09:04:50.520Z,998.79
2019-05-05T09:05:50.517Z,998.75
2019-05-05T09:06:50.476Z,998.79
2019-05-05T09:07:50.487Z,998.80
2019-05-05T09:08:50.456Z,998.71
2019-05-05T09:09:50.441Z,998.79
2019-05-05T09:10:52.283Z,998.80
2019-05-05T09:11:50.462Z,998.78
2019-05-05T09:12:50.406Z,998.72
2019-05-05T09:13:50.416Z,998.76
2019-05-05T09:14:50.382Z,998.75
2019-05-05T09:15:50.402Z,998.71
2019-05-05T09:16:50.380Z,998.75
2019-05-05T09:17:50.350Z,998.76
2019-05-05T09:18:50.359Z,998.75
2019-05-05T09:19:50.358Z,998.72
2019-05-05T09:20:50.317Z,998.76
2019-05-05T09:21:50.305Z,998.71
2019-05-05T09:22:50.296Z,998.67
2019-05-05T09:23:59.965Z,998.80
2019-05-05T09:24:51.294Z,998.71
2019-05-05T09:25:50.258Z,998.75
2019-05-05T09:26:50.247Z,998.71
2019-05-05T09:27:50.236Z,998.73
2019-05-05T09:28:50.226Z,998.73
2019-05-05T09:29:50.243Z,998.77
2019-05-05T09:30:50.264Z,998.69
2019-05-05T09:31:50.202Z,998.73
2019-05-05T09:32:50.181Z,998.73
2019-05-05T09:33:50.191Z,998.73
2019-05-05T09:34:50.190Z,998.75
2019-05-05T09:35:50.145Z,998.76
2019-05-05T09:36:50.137Z,998.72
2019-05-05T09:37:50.200Z,998.73
2019-05-05T09:38:50.138Z,998.79
2019-05-05T09:39:50.101Z,998.83
2019-05-05T09:40:50.153Z,998.84
2019-05-05T09:41:50.084Z,998.78
2019-05-05T09:42:50.069Z,998.86
2019-05-05T09:43:50.087Z,998.85
2019-05-05T09:44:50.051Z,998.91
2019-05-05T09:45:50.061Z,998.96
2019-05-05T09:46:50.022Z,999.01
2019-05-05T09:47:50.039Z,998.91
2019-05-05T09:48:50.001Z,998.89
2019-05-05T09:49:49.994Z,998.79
2019-05-05T09:50:49.975Z,998.88
2019-05-05T09:51:49.964Z,998.86
2019-05-05T09:52:49.989Z,998.84
2019-05-05T09:53:49.942Z,998.89
2019-05-05T09:54:49.935Z,998.93
2019-05-05T09:55:49.952Z,998.93
2019-05-05T09:56:49.933Z,998.97
2019-05-05T09:57:49.897Z,998.95
2019-05-05T09:58:49.886Z,999.11
2019-05-05T09:59:49.901Z,999.04
2019-05-05T10:00:49.867Z,999.02
2019-05-05T10:01:49.860Z,999.02
2019-05-05T10:02:49.870Z,998.98
2019-05-05T10:03:49.847Z,998.96
2019-05-05T10:04:49.819Z,998.97
2019-05-05T10:05:49.807Z,998.94
2019-05-05T10:06:49.799Z,998.91
2019-05-05T10:07:49.818Z,998.90
2019-05-05T10:08:49.774Z,998.94
2019-05-05T10:09:49.785Z,998.97
2019-05-05T10:10:49.762Z,998.92
2019-05-05T10:11:49.739Z,998.94
2019-05-05T10:12:52.273Z,999.05
2019-05-05T10:13:49.715Z,999.03
2019-05-05T10:14:49.706Z,999.07
2019-05-05T10:15:49.695Z,999.03
2019-05-05T10:16:49.725Z,999.06
2019-05-05T10:17:49.703Z,999.05
2019-05-05T10:18:49.675Z,999.11
2019-05-05T10:19:49.653Z,999.13
2019-05-05T10:20:49.649Z,999.14
2019-05-05T10:21:49.627Z,999.07
2019-05-05T10:22:49.635Z,999.07
2019-05-05T10:23:49.630Z,999.12
2019-05-05T10:24:49.596Z,999.09
2019-05-05T10:25:49.603Z,999.10
2019-05-05T10:26:49.602Z,999.10
2019-05-05T10:27:49.563Z,999.12
2019-05-05T10:28:49.547Z,999.19
2019-05-05T10:29:49.541Z,999.24
2019-05-05T10:30:49.551Z,999.19
2019-05-05T10:31:49.531Z,999.23
2019-05-05T10:32:49.504Z,999.24
2019-05-05T10:33:49.491Z,999.14
2019-05-05T10:34:49.502Z,999.19
2019-05-05T10:35:49.493Z,999.16
2019-05-05T10:36:49.468Z,999.05
2019-05-05T10:37:49.452Z,999.11
2019-05-05T10:38:49.468Z,999.07
2019-05-05T10:39:49.441Z,999.09
2019-05-05T10:40:49.436Z,999.03
2019-05-05T10:41:49.402Z,998.99
2019-05-05T10:42:49.391Z,999.01
2019-05-05T10:43:49.377Z,999.00
2019-05-05T10:44:49.397Z,998.97
2019-05-05T10:45:49.354Z,999.01
2019-05-05T10:46:49.349Z,999.02
2019-05-05T10:47:49.363Z,999.05
2019-05-05T10:48:49.342Z,999.06
2019-05-05T10:49:49.309Z,999.00
2019-05-05T10:50:49.298Z,999.02
2019-05-05T10:51:49.311Z,999.02
2019-05-05T10:52:49.277Z,999.04
2019-05-05T10:53:49.290Z,998.98
2019-05-05T10:54:49.253Z,999.00
2019-05-05T10:55:49.269Z,998.92
2019-05-05T10:56:49.249Z,998.96
2019-05-05T10:57:49.243Z,999.08
2019-05-05T10:58:49.228Z,999.03
2019-05-05T10:59:49.198Z,999.04
2019-05-05T11:00:49.204Z,999.02
2019-05-05T11:01:49.174Z,999.06
2019-05-05T11:02:49.187Z,999.05
2019-05-05T11:03:49.171Z,999.09
2019-05-05T11:04:49.140Z,999.02
2019-05-05T11:05:49.138Z,999.07
2019-05-05T11:06:49.119Z,999.03
2019-05-05T11:07:49.129Z,999.04
2019-05-05T11:08:49.114Z,998.94
2019-05-05T11:09:49.087Z,998.90
2019-05-05T11:10:49.072Z,998.92
2019-05-05T11:11:49.095Z,998.96
2019-05-05T11:12:49.098Z,998.92
2019-05-05T11:13:49.054Z,998.97
2019-05-05T11:14:49.028Z,998.97
2019-05-05T11:15:49.022Z,999.00
2019-05-05T11:16:49.088Z,999.00
2019-05-05T11:17:48.999Z,999.00
2019-05-05T11:18:48.992Z,999.06
2019-05-05T11:19:50.278Z,999.06
2019-05-05T11:20:48.964Z,999.11
2019-05-05T11:21:48.964Z,999.10
2019-05-05T11:22:48.951Z,999.14
2019-05-05T11:23:48.956Z,999.15
2019-05-05T11:24:58.370Z,999.14
2019-05-05T11:25:49.904Z,999.19
2019-05-05T11:26:48.917Z,999.15
2019-05-05T11:27:48.896Z,999.20
2019-05-05T11:28:48.868Z,999.13
2019-05-05T11:29:48.860Z,999.12
2019-05-05T11:30:48.852Z,999.13
2019-05-05T11:31:48.872Z,999.12
2019-05-05T11:32:48.824Z,999.13
2019-05-05T11:33:48.822Z,999.10
2019-05-05T11:34:48.800Z,999.11
2019-05-05T11:35:48.801Z,999.13
2019-05-05T11:36:48.812Z,999.11
2019-05-05T11:37:48.766Z,999.16
2019-05-05T11:38:48.754Z,999.12
2019-05-05T11:39:48.746Z,999.12
2019-05-05T11:40:48.751Z,999.13
2019-05-05T11:41:48.739Z,999.11
2019-05-05T11:42:48.710Z,999.14
2019-05-05T11:43:48.724Z,999.16
2019-05-05T11:44:48.700Z,999.18
2019-05-05T11:45:48.676Z,999.08
2019-05-05T11:46:48.686Z,999.07
2019-05-05T11:47:48.682Z,999.15
2019-05-05T11:48:48.646Z,999.12
2019-05-05T11:49:48.653Z,999.07
2019-05-05T11:50:48.625Z,999.01
2019-05-05T11:51:48.606Z,999.07
2019-05-05T11:52:48.598Z,999.03
2019-05-05T11:53:48.650Z,999.09
2019-05-05T11:54:48.609Z,999.15
2019-05-05T11:55:48.566Z,999.12
2019-05-05T11:56:48.554Z,999.14
2019-05-05T11:57:48.540Z,999.15
2019-05-05T11:58:48.529Z,999.11
2019-05-05T11:59:48.556Z,999.08
2019-05-05T12:00:48.506Z,999.05
2019-05-05T12:01:48.511Z,999.05
2019-05-05T12:02:48.483Z,999.01
2019-05-05T12:03:48.508Z,999.01
2019-05-05T12:04:48.478Z,999.07
2019-05-05T12:05:48.451Z,999.07
2019-05-05T12:06:48.442Z,999.07
2019-05-05T12:07:48.517Z,999.06
2019-05-05T12:08:48.428Z,999.07
2019-05-05T12:09:48.405Z,999.05
2019-05-05T12:10:48.419Z,999.09
2019-05-05T12:11:48.385Z,999.07
2019-05-05T12:12:48.371Z,999.07
2019-05-05T12:13:48.362Z,999.12
2019-05-05T12:14:48.351Z,999.15
2019-05-05T12:15:48.366Z,999.14
2019-05-05T12:16:48.338Z,999.10
2019-05-05T12:17:48.362Z,999.08
2019-05-05T12:18:48.304Z,999.10
2019-05-05T12:19:48.643Z,999.10
2019-05-05T12:20:48.308Z,999.01
2019-05-05T12:21:48.287Z,999.08
2019-05-05T12:22:48.257Z,999.03
2019-05-05T12:23:48.250Z,999.04
2019-05-05T12:24:48.235Z,999.05
2019-05-05T12:25:48.282Z,999.05
2019-05-05T12:26:48.216Z,999.02
2019-05-05T12:27:48.249Z,999.04
2019-05-05T12:28:48.192Z,999.13